Search for airport 
image banner adimage banner adimage banner ad
image banner ad

02CL - Conover Air Lodge

Located in Frazier Park, United States

ICAO - 02CL, IATA -

Data provided by Airmate  

General information

Coordinates: N34°45'40" W119°3'32"
Elevation is 5160 feet MSL.
Magnetic variation is 14° East
View others Airports in California

Operational data

Special qualification required
Current time UTC:
Current local time:
Weather at : KCMA - Camarillo ( 61 km )
METAR: KCMA 221255Z AUTO 00000KT 10SM OVC010 18/13 A2993 RMK AO2 SLP144 T01780133
TAF: KCMA 221300Z 2213/2312 VRB03KT P6SM OVC010 FM221900 24009KT P6SM SCT012 FM230500 VRB03KT P6SM BKN007
View NOTAMs / SUP AIP / TFR affecting this airport [VIEW]
Communications frequencies: [VIEW]

Runways:

RWY identifierQFULength (ft)Width (ft)SurfaceLDA (ft)
16300060EARTH
34300060EARTH

Airport contact information

Address: Frazier Park United States

Satellite view of 02CL